sensor_id;sensor_type;location;lat;lon;timestamp;pressure;altitude;pressure_sealevel;temperature;humidity
52469;BME280;38381;53.688;10.776;2022-09-06T00:03:27;101870.81;;;16.39;58.85
52469;BME280;38381;53.688;10.776;2022-09-06T00:08:28;101868.22;;;16.41;58.17
52469;BME280;38381;53.688;10.776;2022-09-06T00:13:28;101874.31;;;16.35;57.90
52469;BME280;38381;53.688;10.776;2022-09-06T00:18:28;101871.72;;;16.37;57.68
52469;BME280;38381;53.688;10.776;2022-09-06T00:23:29;101859.50;;;16.33;57.64
52469;BME280;38381;53.688;10.776;2022-09-06T00:28:29;101846.38;;;16.31;57.77
52469;BME280;38381;53.688;10.776;2022-09-06T00:33:29;101847.25;;;16.32;57.59
52469;BME280;38381;53.688;10.776;2022-09-06T00:38:30;101849.00;;;16.26;57.42
52469;BME280;38381;53.688;10.776;2022-09-06T00:43:30;101851.59;;;16.17;57.24
52469;BME280;38381;53.688;10.776;2022-09-06T00:48:31;101848.97;;;16.16;57.23
52469;BME280;38381;53.688;10.776;2022-09-06T00:53:31;101842.00;;;16.18;56.80
52469;BME280;38381;53.688;10.776;2022-09-06T00:58:32;101853.34;;;16.14;57.03
52469;BME280;38381;53.688;10.776;2022-09-06T01:03:33;101842.88;;;16.11;57.12
52469;BME280;38381;53.688;10.776;2022-09-06T01:08:41;101850.75;;;16.12;56.97
52469;BME280;38381;53.688;10.776;2022-09-06T01:14:18;101848.09;;;16.01;57.11
52469;BME280;38381;53.688;10.776;2022-09-06T01:25:15;101844.63;;;16.02;57.65
52469;BME280;38381;53.688;10.776;2022-09-06T01:30:18;101843.75;;;15.96;57.87
52469;BME280;38381;53.688;10.776;2022-09-06T01:35:26;101848.94;;;15.91;58.15
52469;BME280;38381;53.688;10.776;2022-09-06T01:40:29;101835.00;;;15.91;57.67
52469;BME280;38381;53.688;10.776;2022-09-06T01:51:23;101844.56;;;15.73;58.17
52469;BME280;38381;53.688;10.776;2022-09-06T02:02:02;101842.00;;;15.85;56.96
52469;BME280;38381;53.688;10.776;2022-09-06T02:07:18;101850.69;;;15.81;57.06
52469;BME280;38381;53.688;10.776;2022-09-06T02:12:21;101836.69;;;15.67;57.09
52469;BME280;38381;53.688;10.776;2022-09-06T02:17:31;101826.25;;;15.76;56.29
52469;BME280;38381;53.688;10.776;2022-09-06T02:22:35;101838.50;;;15.83;56.12
52469;BME280;38381;53.688;10.776;2022-09-06T02:27:38;101848.88;;;15.68;56.00
52469;BME280;38381;53.688;10.776;2022-09-06T02:32:47;101818.44;;;15.82;55.58
52469;BME280;38381;53.688;10.776;2022-09-06T02:37:49;101826.28;;;15.85;54.49
52469;BME280;38381;53.688;10.776;2022-09-06T02:42:50;101831.50;;;15.82;54.35
52469;BME280;38381;53.688;10.776;2022-09-06T02:47:50;101820.16;;;15.80;53.80
52469;BME280;38381;53.688;10.776;2022-09-06T02:53:04;101823.59;;;15.70;53.88
52469;BME280;38381;53.688;10.776;2022-09-06T02:58:06;101829.69;;;15.66;53.91
52469;BME280;38381;53.688;10.776;2022-09-06T03:03:06;101812.28;;;15.69;54.10
52469;BME280;38381;53.688;10.776;2022-09-06T03:08:07;101815.72;;;15.56;54.15
52469;BME280;38381;53.688;10.776;2022-09-06T03:13:07;101819.19;;;15.52;54.56
52469;BME280;38381;53.688;10.776;2022-09-06T03:18:07;101814.84;;;15.49;54.12
52469;BME280;38381;53.688;10.776;2022-09-06T03:23:08;101801.75;;;15.45;54.55
52469;BME280;38381;53.688;10.776;2022-09-06T03:28:09;101800.00;;;15.41;54.42
52469;BME280;38381;53.688;10.776;2022-09-06T03:33:09;101795.59;;;15.29;54.49
52469;BME280;38381;53.688;10.776;2022-09-06T03:38:09;101789.47;;;15.21;55.09
52469;BME280;38381;53.688;10.776;2022-09-06T03:43:10;101792.09;;;15.22;54.61
52469;BME280;38381;53.688;10.776;2022-09-06T03:48:10;101792.94;;;15.18;54.52
52469;BME280;38381;53.688;10.776;2022-09-06T03:53:10;101786.84;;;15.16;54.54
52469;BME280;38381;53.688;10.776;2022-09-06T03:58:11;101781.59;;;15.13;54.20
52469;BME280;38381;53.688;10.776;2022-09-06T04:03:11;101781.59;;;15.12;54.34
52469;BME280;38381;53.688;10.776;2022-09-06T04:08:12;101779.84;;;15.12;53.92
52469;BME280;38381;53.688;10.776;2022-09-06T04:13:12;101778.13;;;15.09;53.86
52469;BME280;38381;53.688;10.776;2022-09-06T04:18:13;101778.94;;;15.02;53.85
52469;BME280;38381;53.688;10.776;2022-09-06T04:23:14;101783.31;;;15.03;53.41
52469;BME280;38381;53.688;10.776;2022-09-06T04:28:16;101783.31;;;15.03;53.34
52469;BME280;38381;53.688;10.776;2022-09-06T04:33:17;101784.16;;;15.02;53.12
52469;BME280;38381;53.688;10.776;2022-09-06T04:38:17;101785.03;;;14.95;53.09
52469;BME280;38381;53.688;10.776;2022-09-06T04:43:21;101781.53;;;15.01;52.91
52469;BME280;38381;53.688;10.776;2022-09-06T04:48:21;101781.50;;;14.87;53.53
52469;BME280;38381;53.688;10.776;2022-09-06T04:53:22;101777.19;;;14.98;53.08
52469;BME280;38381;53.688;10.776;2022-09-06T04:58:22;101791.06;;;14.88;53.50
52469;BME280;38381;53.688;10.776;2022-09-06T05:03:22;101788.50;;;14.96;53.64
52469;BME280;38381;53.688;10.776;2022-09-06T05:08:22;101798.88;;;14.83;53.94
52469;BME280;38381;53.688;10.776;2022-09-06T05:13:23;101794.53;;;14.84;54.08
52469;BME280;38381;53.688;10.776;2022-09-06T05:18:23;101790.22;;;14.89;54.11
52469;BME280;38381;53.688;10.776;2022-09-06T05:23:24;101788.47;;;14.91;54.60
52469;BME280;38381;53.688;10.776;2022-09-06T05:28:24;101785.88;;;14.94;54.62
52469;BME280;38381;53.688;10.776;2022-09-06T05:33:24;101782.34;;;14.86;55.29
52469;BME280;38381;53.688;10.776;2022-09-06T05:38:25;101779.69;;;14.80;56.02
52469;BME280;38381;53.688;10.776;2022-09-06T05:43:25;101782.34;;;14.86;55.54
52469;BME280;38381;53.688;10.776;2022-09-06T05:48:25;101778.84;;;14.84;56.15
52469;BME280;38381;53.688;10.776;2022-09-06T05:53:25;101778.81;;;14.78;56.37
52469;BME280;38381;53.688;10.776;2022-09-06T05:58:26;101785.69;;;14.59;57.12
52469;BME280;38381;53.688;10.776;2022-09-06T06:03:26;101795.34;;;14.78;57.03
52469;BME280;38381;53.688;10.776;2022-09-06T06:08:26;101781.47;;;14.81;57.07
52469;BME280;38381;53.688;10.776;2022-09-06T06:13:27;101788.41;;;14.79;56.80
52469;BME280;38381;53.688;10.776;2022-09-06T06:18:28;101785.88;;;14.94;56.70
52469;BME280;38381;53.688;10.776;2022-09-06T06:23:29;101792.88;;;15.04;56.73
52469;BME280;38381;53.688;10.776;2022-09-06T06:28:29;101788.59;;;15.16;56.95
52469;BME280;38381;53.688;10.776;2022-09-06T06:33:30;101776.44;;;15.24;57.49
52469;BME280;38381;53.688;10.776;2022-09-06T06:38:35;101767.78;;;15.49;56.27
52469;BME280;38381;53.688;10.776;2022-09-06T06:43:36;101768.66;;;15.58;56.35
52469;BME280;38381;53.688;10.776;2022-09-06T06:48:38;101768.66;;;15.56;56.19
52469;BME280;38381;53.688;10.776;2022-09-06T06:53:41;101753.91;;;15.80;55.65
52469;BME280;38381;53.688;10.776;2022-09-06T06:58:43;101753.91;;;15.87;55.49
52469;BME280;38381;53.688;10.776;2022-09-06T07:03:44;101742.56;;;16.01;55.70
52469;BME280;38381;53.688;10.776;2022-09-06T07:08:45;101755.66;;;16.10;54.86
52469;BME280;38381;53.688;10.776;2022-09-06T07:13:45;101759.13;;;16.14;55.22
52469;BME280;38381;53.688;10.776;2022-09-06T07:18:46;101756.50;;;16.21;55.42
52469;BME280;38381;53.688;10.776;2022-09-06T07:23:46;101764.38;;;16.21;55.13
52469;BME280;38381;53.688;10.776;2022-09-06T07:28:51;101760.00;;;16.39;55.17
52469;BME280;38381;53.688;10.776;2022-09-06T07:33:51;101766.91;;;16.63;54.23
52469;BME280;38381;53.688;10.776;2022-09-06T07:38:52;101750.34;;;16.64;53.96
52469;BME280;38381;53.688;10.776;2022-09-06T07:43:53;101749.47;;;16.57;53.66
52469;BME280;38381;53.688;10.776;2022-09-06T07:48:53;101744.22;;;16.69;54.30
52469;BME280;38381;53.688;10.776;2022-09-06T07:53:54;101743.31;;;16.70;54.30
52469;BME280;38381;53.688;10.776;2022-09-06T07:58:57;101735.44;;;16.77;53.80
52469;BME280;38381;53.688;10.776;2022-09-06T08:04:10;101744.19;;;16.85;53.80
52469;BME280;38381;53.688;10.776;2022-09-06T08:09:13;101743.22;;;17.00;53.55
52469;BME280;38381;53.688;10.776;2022-09-06T08:14:14;101741.41;;;17.19;53.56
52469;BME280;38381;53.688;10.776;2022-09-06T08:19:14;101738.81;;;17.13;52.77
52469;BME280;38381;53.688;10.776;2022-09-06T08:24:14;101743.19;;;17.14;53.50
52469;BME280;38381;53.688;10.776;2022-09-06T08:29:15;101732.59;;;17.30;52.70
52469;BME280;38381;53.688;10.776;2022-09-06T08:34:15;101735.16;;;17.40;52.37
52469;BME280;38381;53.688;10.776;2022-09-06T08:39:16;101740.34;;;17.54;52.24
52469;BME280;38381;53.688;10.776;2022-09-06T08:44:25;101726.31;;;17.55;52.29
52469;BME280;38381;53.688;10.776;2022-09-06T08:49:30;101737.59;;;17.67;52.07
52469;BME280;38381;53.688;10.776;2022-09-06T08:54:54;101732.22;;;17.86;51.42
52469;BME280;38381;53.688;10.776;2022-09-06T09:00:00;101731.38;;;17.82;52.77
52469;BME280;38381;53.688;10.776;2022-09-06T09:05:03;101730.31;;;18.06;51.67
52469;BME280;38381;53.688;10.776;2022-09-06T09:10:12;101732.81;;;18.20;51.06
52469;BME280;38381;53.688;10.776;2022-09-06T09:15:17;101730.03;;;18.36;51.06
52469;BME280;38381;53.688;10.776;2022-09-06T09:20:18;101728.22;;;18.42;50.77
52469;BME280;38381;53.688;10.776;2022-09-06T09:25:21;101729.06;;;18.43;50.19
52469;BME280;38381;53.688;10.776;2022-09-06T09:30:26;101726.31;;;18.54;50.43
52469;BME280;38381;53.688;10.776;2022-09-06T09:35:43;101711.25;;;18.71;50.42
52469;BME280;38381;53.688;10.776;2022-09-06T09:40:56;101705.94;;;18.79;49.90
52469;BME280;38381;53.688;10.776;2022-09-06T09:51:21;101691.53;;;19.07;49.12
52469;BME280;38381;53.688;10.776;2022-09-06T09:56:46;101691.53;;;19.07;49.33
52469;BME280;38381;53.688;10.776;2022-09-06T10:01:48;101696.72;;;19.12;49.03
52469;BME280;38381;53.688;10.776;2022-09-06T10:06:49;101693.06;;;19.22;49.51
52469;BME280;38381;53.688;10.776;2022-09-06T10:16:53;101686.66;;;19.40;47.63
52469;BME280;38381;53.688;10.776;2022-09-06T10:21:58;101675.13;;;19.50;47.30
52469;BME280;38381;53.688;10.776;2022-09-06T10:27:03;101668.72;;;19.65;47.65
52469;BME280;38381;53.688;10.776;2022-09-06T10:32:15;101660.75;;;19.70;47.20
52469;BME280;38381;53.688;10.776;2022-09-06T10:42:47;101648.25;;;19.84;46.53
52469;BME280;38381;53.688;10.776;2022-09-06T10:53:54;101642.94;;;19.87;45.74
52469;BME280;38381;53.688;10.776;2022-09-06T10:59:06;101631.34;;;19.96;45.82
52469;BME280;38381;53.688;10.776;2022-09-06T11:04:19;101617.34;;;19.96;45.79
52469;BME280;38381;53.688;10.776;2022-09-06T11:09:33;101624.63;;;19.80;46.05
52469;BME280;38381;53.688;10.776;2022-09-06T11:14:38;101622.59;;;19.96;45.82
52469;BME280;38381;53.688;10.776;2022-09-06T11:19:44;101613.78;;;19.97;46.62
52469;BME280;38381;53.688;10.776;2022-09-06T11:30:13;101623.03;;;20.18;45.02
52469;BME280;38381;53.688;10.776;2022-09-06T11:35:26;101620.56;;;20.10;45.00
52469;BME280;38381;53.688;10.776;2022-09-06T11:40:38;101619.91;;;19.97;46.00
52469;BME280;38381;53.688;10.776;2022-09-06T11:45:50;101611.84;;;20.08;45.92
52469;BME280;38381;53.688;10.776;2022-09-06T12:11:33;101600.09;;;20.24;45.20
52469;BME280;38381;53.688;10.776;2022-09-06T12:27:34;101583.47;;;20.21;45.77
52469;BME280;38381;53.688;10.776;2022-09-06T12:32:40;101586.09;;;20.22;44.28
52469;BME280;38381;53.688;10.776;2022-09-06T12:37:53;101583.53;;;20.18;45.09
52469;BME280;38381;53.688;10.776;2022-09-06T12:42:54;101581.66;;;20.24;44.88
52469;BME280;38381;53.688;10.776;2022-09-06T12:48:07;101579.91;;;20.23;45.20
52469;BME280;38381;53.688;10.776;2022-09-06T12:53:21;101573.66;;;20.27;45.16
52469;BME280;38381;53.688;10.776;2022-09-06T12:58:28;101575.53;;;20.22;45.09
52469;BME280;38381;53.688;10.776;2022-09-06T13:03:56;101570.28;;;20.22;45.27
52469;BME280;38381;53.688;10.776;2022-09-06T13:08:57;101563.25;;;20.21;45.33
52469;BME280;38381;53.688;10.776;2022-09-06T13:13:59;101571.28;;;20.15;45.70
52469;BME280;38381;53.688;10.776;2022-09-06T13:19:29;101548.06;;;20.34;45.46
52469;BME280;38381;53.688;10.776;2022-09-06T13:29:33;101530.41;;;20.38;45.82
52469;BME280;38381;53.688;10.776;2022-09-06T13:34:33;101530.19;;;20.48;45.07
52469;BME280;38381;53.688;10.776;2022-09-06T13:39:38;101531.22;;;20.41;45.48
52469;BME280;38381;53.688;10.776;2022-09-06T13:44:38;101529.25;;;20.51;45.48
52469;BME280;38381;53.688;10.776;2022-09-06T13:49:39;101539.75;;;20.53;45.44
52469;BME280;38381;53.688;10.776;2022-09-06T13:54:39;101525.78;;;20.49;45.90
52469;BME280;38381;53.688;10.776;2022-09-06T13:59:39;101523.88;;;20.56;46.23
52469;BME280;38381;53.688;10.776;2022-09-06T14:04:41;101530.94;;;20.54;46.39
52469;BME280;38381;53.688;10.776;2022-09-06T14:09:42;101523.88;;;20.56;45.80
52469;BME280;38381;53.688;10.776;2022-09-06T14:14:42;101522.06;;;20.59;45.70
52469;BME280;38381;53.688;10.776;2022-09-06T14:19:43;101516.72;;;20.62;46.25
52469;BME280;38381;53.688;10.776;2022-09-06T14:24:45;101516.56;;;20.68;45.91
52469;BME280;38381;53.688;10.776;2022-09-06T14:29:45;101512.13;;;20.70;45.85
52469;BME280;38381;53.688;10.776;2022-09-06T14:34:46;101517.44;;;20.69;46.34
52469;BME280;38381;53.688;10.776;2022-09-06T14:45:27;101512.63;;;20.86;45.76
52469;BME280;38381;53.688;10.776;2022-09-06T14:50:28;101502.22;;;20.82;45.73
52469;BME280;38381;53.688;10.776;2022-09-06T14:55:30;101497.94;;;20.76;45.67
52469;BME280;38381;53.688;10.776;2022-09-06T15:00:31;101499.63;;;20.79;45.71
52469;BME280;38381;53.688;10.776;2022-09-06T15:05:32;101491.72;;;20.79;45.41
52469;BME280;38381;53.688;10.776;2022-09-06T15:10:32;101494.22;;;20.85;45.76
52469;BME280;38381;53.688;10.776;2022-09-06T15:15:32;101486.47;;;20.77;45.55
52469;BME280;38381;53.688;10.776;2022-09-06T15:20:33;101482.97;;;20.78;45.97
52469;BME280;38381;53.688;10.776;2022-09-06T15:25:34;101482.94;;;20.80;45.26
52469;BME280;38381;53.688;10.776;2022-09-06T15:30:37;101481.19;;;20.79;45.60
52469;BME280;38381;53.688;10.776;2022-09-06T15:35:38;101470.59;;;20.80;45.77
52469;BME280;38381;53.688;10.776;2022-09-06T15:40:38;101465.31;;;20.82;45.63
52469;BME280;38381;53.688;10.776;2022-09-06T15:45:49;101470.78;;;20.73;46.30
52469;BME280;38381;53.688;10.776;2022-09-06T15:50:49;101463.00;;;20.68;45.72
52469;BME280;38381;53.688;10.776;2022-09-06T15:55:57;101462.28;;;20.61;46.09
52469;BME280;38381;53.688;10.776;2022-09-06T16:00:59;101463.41;;;20.49;46.69
52469;BME280;38381;53.688;10.776;2022-09-06T16:06:01;101467.72;;;20.52;45.40
52469;BME280;38381;53.688;10.776;2022-09-06T16:11:13;101456.69;;;20.36;45.69
52469;BME280;38381;53.688;10.776;2022-09-06T16:16:15;101462.84;;;20.37;46.09
52469;BME280;38381;53.688;10.776;2022-09-06T16:21:18;101455.06;;;20.30;46.64
52469;BME280;38381;53.688;10.776;2022-09-06T16:26:19;101448.03;;;20.31;45.88
52469;BME280;38381;53.688;10.776;2022-09-06T16:31:20;101450.97;;;20.17;46.39
52469;BME280;38381;53.688;10.776;2022-09-06T16:36:21;101447.59;;;20.12;46.56
52469;BME280;38381;53.688;10.776;2022-09-06T16:41:23;101446.69;;;20.12;46.43
52469;BME280;38381;53.688;10.776;2022-09-06T16:46:25;101443.25;;;20.09;46.48
52469;BME280;38381;53.688;10.776;2022-09-06T16:51:28;101436.25;;;20.08;46.86
52469;BME280;38381;53.688;10.776;2022-09-06T16:56:30;101430.25;;;20.02;46.87
52469;BME280;38381;53.688;10.776;2022-09-06T17:01:33;101426.84;;;19.97;47.17
52469;BME280;38381;53.688;10.776;2022-09-06T17:06:35;101429.50;;;19.95;47.04
52469;BME280;38381;53.688;10.776;2022-09-06T17:11:43;101411.28;;;19.87;47.98
52469;BME280;38381;53.688;10.776;2022-09-06T17:16:43;101401.56;;;19.89;47.30
52469;BME280;38381;53.688;10.776;2022-09-06T17:22:03;101407.66;;;19.92;47.23
52469;BME280;38381;53.688;10.776;2022-09-06T17:27:04;101397.97;;;19.94;47.13
52469;BME280;38381;53.688;10.776;2022-09-06T17:32:05;101405.94;;;19.90;46.94
52469;BME280;38381;53.688;10.776;2022-09-06T17:37:09;101408.63;;;19.87;47.32
52469;BME280;38381;53.688;10.776;2022-09-06T17:42:09;101408.72;;;19.83;47.51
52469;BME280;38381;53.688;10.776;2022-09-06T17:47:09;101408.78;;;19.81;48.16
52469;BME280;38381;53.688;10.776;2022-09-06T17:52:10;101415.00;;;19.77;47.39
52469;BME280;38381;53.688;10.776;2022-09-06T17:57:10;101406.22;;;19.77;47.35
52469;BME280;38381;53.688;10.776;2022-09-06T18:02:11;101400.34;;;19.62;47.95
52469;BME280;38381;53.688;10.776;2022-09-06T18:07:11;101409.88;;;19.68;47.75
52469;BME280;38381;53.688;10.776;2022-09-06T18:12:11;101421.59;;;19.55;48.20
52469;BME280;38381;53.688;10.776;2022-09-06T18:17:12;101426.78;;;19.56;48.32
52469;BME280;38381;53.688;10.776;2022-09-06T18:22:13;101422.66;;;19.44;48.59
52469;BME280;38381;53.688;10.776;2022-09-06T18:27:14;101420.03;;;19.44;48.87
52469;BME280;38381;53.688;10.776;2022-09-06T18:32:14;101422.72;;;19.41;48.66
52469;BME280;38381;53.688;10.776;2022-09-06T18:37:14;101415.63;;;19.45;48.74
52469;BME280;38381;53.688;10.776;2022-09-06T18:42:15;101419.13;;;19.44;48.64
52469;BME280;38381;53.688;10.776;2022-09-06T18:47:15;101420.19;;;19.37;48.75
52469;BME280;38381;53.688;10.776;2022-09-06T18:52:16;101424.63;;;19.33;48.77
52469;BME280;38381;53.688;10.776;2022-09-06T18:57:18;101421.25;;;19.26;49.12
52469;BME280;38381;53.688;10.776;2022-09-06T19:02:19;101435.22;;;19.30;48.99
52469;BME280;38381;53.688;10.776;2022-09-06T19:07:21;101430.13;;;19.21;49.46
52469;BME280;38381;53.688;10.776;2022-09-06T19:12:21;101425.00;;;19.13;49.49
52469;BME280;38381;53.688;10.776;2022-09-06T19:17:22;101426.00;;;19.07;49.61
52469;BME280;38381;53.688;10.776;2022-09-06T19:22:22;101418.22;;;19.01;49.84
52469;BME280;38381;53.688;10.776;2022-09-06T19:27:22;101411.94;;;19.07;49.56
52469;BME280;38381;53.688;10.776;2022-09-06T19:32:23;101413.84;;;18.99;49.82
52469;BME280;38381;53.688;10.776;2022-09-06T19:37:23;101415.75;;;18.90;49.91
52469;BME280;38381;53.688;10.776;2022-09-06T19:42:23;101411.41;;;18.89;50.25
52469;BME280;38381;53.688;10.776;2022-09-06T19:47:23;101408.97;;;18.79;50.50
52469;BME280;38381;53.688;10.776;2022-09-06T19:52:24;101415.09;;;18.76;50.71
52469;BME280;38381;53.688;10.776;2022-09-06T19:57:24;101408.09;;;18.77;50.59
52469;BME280;38381;53.688;10.776;2022-09-06T20:02:24;101411.84;;;18.62;51.17
52469;BME280;38381;53.688;10.776;2022-09-06T20:07:25;101409.16;;;18.65;50.93
52469;BME280;38381;53.688;10.776;2022-09-06T20:12:27;101409.25;;;18.60;50.92
52469;BME280;38381;53.688;10.776;2022-09-06T20:17:28;101404.91;;;18.58;50.75
52469;BME280;38381;53.688;10.776;2022-09-06T20:22:29;101410.28;;;18.50;51.10
52469;BME280;38381;53.688;10.776;2022-09-06T20:27:30;101404.13;;;18.53;50.96
52469;BME280;38381;53.688;10.776;2022-09-06T20:32:30;101412.09;;;18.48;51.00
52469;BME280;38381;53.688;10.776;2022-09-06T20:37:31;101394.63;;;18.44;51.17
52469;BME280;38381;53.688;10.776;2022-09-06T20:42:31;101394.56;;;18.47;50.78
52469;BME280;38381;53.688;10.776;2022-09-06T20:47:31;101398.16;;;18.41;51.18
52469;BME280;38381;53.688;10.776;2022-09-06T20:52:32;101384.31;;;18.32;51.21
52469;BME280;38381;53.688;10.776;2022-09-06T20:57:32;101373.88;;;18.27;51.41
52469;BME280;38381;53.688;10.776;2022-09-06T21:02:33;101376.47;;;18.28;51.06
52469;BME280;38381;53.688;10.776;2022-09-06T21:07:33;101376.56;;;18.22;51.17
52469;BME280;38381;53.688;10.776;2022-09-06T21:12:33;101370.44;;;18.23;51.15
52469;BME280;38381;53.688;10.776;2022-09-06T21:17:34;101366.97;;;18.21;51.17
52469;BME280;38381;53.688;10.776;2022-09-06T21:22:34;101358.31;;;18.15;51.50
52469;BME280;38381;53.688;10.776;2022-09-06T21:27:34;101354.88;;;18.11;51.71
52469;BME280;38381;53.688;10.776;2022-09-06T21:32:36;101369.88;;;18.03;52.56
52469;BME280;38381;53.688;10.776;2022-09-06T21:37:37;101363.72;;;18.04;52.18
52469;BME280;38381;53.688;10.776;2022-09-06T21:42:38;101348.06;;;17.98;52.41
52469;BME280;38381;53.688;10.776;2022-09-06T21:47:38;101345.53;;;17.93;52.72
52469;BME280;38381;53.688;10.776;2022-09-06T21:52:39;101341.31;;;17.83;53.56
52469;BME280;38381;53.688;10.776;2022-09-06T21:57:39;101330.09;;;17.70;53.45
52469;BME280;38381;53.688;10.776;2022-09-06T22:02:40;101335.41;;;17.64;53.62
52469;BME280;38381;53.688;10.776;2022-09-06T22:07:41;101331.13;;;17.58;54.17
52469;BME280;38381;53.688;10.776;2022-09-06T22:12:42;101335.59;;;17.50;54.49
52469;BME280;38381;53.688;10.776;2022-09-06T22:17:42;101333.06;;;17.44;54.65
52469;BME280;38381;53.688;10.776;2022-09-06T22:22:42;101340.06;;;17.42;54.81
52469;BME280;38381;53.688;10.776;2022-09-06T22:27:45;101322.75;;;17.28;55.27
52469;BME280;38381;53.688;10.776;2022-09-06T22:32:45;101314.09;;;17.23;55.50
52469;BME280;38381;53.688;10.776;2022-09-06T22:37:45;101305.50;;;17.11;55.72
52469;BME280;38381;53.688;10.776;2022-09-06T22:42:46;101309.91;;;17.08;55.70
52469;BME280;38381;53.688;10.776;2022-09-06T22:47:46;101295.13;;;17.01;56.28
52469;BME280;38381;53.688;10.776;2022-09-06T22:52:48;101284.78;;;16.91;56.66
52469;BME280;38381;53.688;10.776;2022-09-06T22:57:48;101281.31;;;16.87;57.14
52469;BME280;38381;53.688;10.776;2022-09-06T23:02:49;101288.31;;;16.83;57.19
52469;BME280;38381;53.688;10.776;2022-09-06T23:07:49;101284.84;;;16.81;57.18
52469;BME280;38381;53.688;10.776;2022-09-06T23:12:51;101290.13;;;16.77;57.98
52469;BME280;38381;53.688;10.776;2022-09-06T23:17:51;101308.59;;;16.63;58.13
52469;BME280;38381;53.688;10.776;2022-09-06T23:22:52;101302.53;;;16.59;59.22
52469;BME280;38381;53.688;10.776;2022-09-06T23:27:52;101294.69;;;16.56;58.82
52469;BME280;38381;53.688;10.776;2022-09-06T23:32:52;101293.03;;;16.49;58.78
52469;BME280;38381;53.688;10.776;2022-09-06T23:37:55;101287.00;;;16.41;58.91
52469;BME280;38381;53.688;10.776;2022-09-06T23:42:56;101280.00;;;16.43;59.01
52469;BME280;38381;53.688;10.776;2022-09-06T23:47:56;101267.00;;;16.32;59.39
52469;BME280;38381;53.688;10.776;2022-09-06T23:52:57;101265.28;;;16.29;59.40
52469;BME280;38381;53.688;10.776;2022-09-06T23:57:57;101254.00;;;16.24;59.75
